Time,TemperatureF,DewpointF,PressureIn,WindDirection,WindDirectionDegrees,WindSpeedMPH,WindSpeedGustMPH,Humidity,HourlyPrecipIn,Conditions,Clouds,dailyrainin,SoftwareType,DateUTC
2013-01-19 00:00:00,20.3,11.4,30.17,North,7,0.0,0.0,68,0.00,,,-99.99,VWS V12.07,2013-01-19 07:00:00,
2013-01-19 00:06:00,20.2,11.0,30.17,North,7,0.0,0.0,67,0.00,,,-99.99,VWS V12.07,2013-01-19 07:06:00,
2013-01-19 00:12:00,20.0,10.8,30.15,North,7,0.0,0.0,67,0.00,,,-99.99,VWS V12.07,2013-01-19 07:12:00,
2013-01-19 00:18:00,20.0,11.1,30.15,North,7,0.0,0.0,68,0.00,,,-99.99,VWS V12.07,2013-01-19 07:18:00,
2013-01-19 00:24:00,20.0,10.8,30.15,North,7,0.0,0.0,67,0.00,,,-99.99,VWS V12.07,2013-01-19 07:24:00,
2013-01-19 00:30:00,20.0,10.8,30.15,North,7,0.0,0.0,67,0.00,,,-99.99,VWS V12.07,2013-01-19 07:30:00,
2013-01-19 00:37:00,19.9,10.4,30.15,North,7,0.0,0.0,66,0.00,,,-99.99,VWS V12.07,2013-01-19 07:37:00,
2013-01-19 00:42:00,19.9,12.0,30.15,North,7,0.0,0.0,71,0.00,,,-99.99,VWS V12.07,2013-01-19 07:42:00,
2013-01-19 00:48:00,19.7,11.8,30.15,North,7,0.0,0.0,71,0.00,,,-99.99,VWS V12.07,2013-01-19 07:48:00,
2013-01-19 00:54:00,19.5,12.0,30.15,North,7,0.0,0.0,72,0.00,,,-99.99,VWS V12.07,2013-01-19 07:54:00,
2013-01-19 01:00:00,19.4,11.6,30.15,North,7,0.0,0.0,71,0.00,,,-99.99,VWS V12.07,2013-01-19 08:00:00,
2013-01-19 01:06:00,19.2,12.0,30.15,North,7,0.0,0.0,73,0.00,,,-99.99,VWS V12.07,2013-01-19 08:06:00,
2013-01-19 01:12:00,19.1,11.9,30.13,North,7,0.0,0.0,73,0.00,,,-99.99,VWS V12.07,2013-01-19 08:12:00,
2013-01-19 01:18:00,19.1,12.2,30.13,North,7,0.0,0.0,74,0.00,,,-99.99,VWS V12.07,2013-01-19 08:18:00,
2013-01-19 01:24:00,18.9,11.7,30.13,North,7,0.0,0.0,73,0.00,,,-99.99,VWS V12.07,2013-01-19 08:24:00,
2013-01-19 01:30:00,18.9,11.4,30.14,North,7,0.0,0.0,72,0.00,,,-99.99,VWS V12.07,2013-01-19 08:30:00,
2013-01-19 01:36:00,18.8,11.3,30.14,North,7,0.0,0.0,72,0.00,,,-99.99,VWS V12.07,2013-01-19 08:36:00,
2013-01-19 01:42:00,18.6,11.1,30.14,North,7,0.0,0.0,72,0.00,,,-99.99,VWS V12.07,2013-01-19 08:42:00,
2013-01-19 01:48:00,18.6,11.4,30.14,North,7,0.0,0.0,73,0.00,,,-99.99,VWS V12.07,2013-01-19 08:48:00,
2013-01-19 01:54:00,18.8,11.6,30.14,North,7,0.0,0.0,73,0.00,,,-99.99,VWS V12.07,2013-01-19 08:54:00,
2013-01-19 02:00:00,18.6,11.4,30.15,North,7,0.0,0.0,73,0.00,,,-99.99,VWS V12.07,2013-01-19 09:00:00,
2013-01-19 02:06:00,18.6,11.4,30.15,North,7,0.0,0.0,73,0.00,,,-99.99,VWS V12.07,2013-01-19 09:06:00,
2013-01-19 02:12:00,18.4,11.5,30.15,North,7,0.0,0.0,74,0.00,,,-99.99,VWS V12.07,2013-01-19 09:12:00,
2013-01-19 02:18:00,18.4,11.2,30.15,North,7,0.0,0.0,73,0.00,,,-99.99,VWS V12.07,2013-01-19 09:18:00,
2013-01-19 02:24:00,18.3,11.1,30.15,North,7,0.0,0.0,73,0.00,,,-99.99,VWS V12.07,2013-01-19 09:24:00,
2013-01-19 02:30:00,18.1,11.5,30.15,North,7,0.0,0.0,75,0.00,,,-99.99,VWS V12.07,2013-01-19 09:30:00,
2013-01-19 02:36:00,18.3,11.4,30.15,North,7,0.0,0.0,74,0.00,,,-99.99,VWS V12.07,2013-01-19 09:36:00,
2013-01-19 02:42:00,18.4,11.8,30.15,North,7,0.0,0.0,75,0.00,,,-99.99,VWS V12.07,2013-01-19 09:42:00,
2013-01-19 02:48:00,18.4,11.5,30.15,North,7,0.0,0.0,74,0.00,,,-99.99,VWS V12.07,2013-01-19 09:48:00,
2013-01-19 02:54:00,18.6,11.4,30.15,North,7,0.0,0.0,73,0.00,,,-99.99,VWS V12.07,2013-01-19 09:54:00,
2013-01-19 03:00:00,18.9,11.7,30.15,North,7,0.0,0.0,73,0.00,,,-99.99,VWS V12.07,2013-01-19 10:00:00,
2013-01-19 03:06:00,19.2,12.0,30.15,North,7,0.0,0.0,73,0.00,,,-99.99,VWS V12.07,2013-01-19 10:06:00,
2013-01-19 03:12:00,19.5,12.0,30.15,North,7,0.0,0.0,72,0.00,,,-99.99,VWS V12.07,2013-01-19 10:12:00,
2013-01-19 03:18:00,19.7,12.1,30.15,North,7,0.0,0.0,72,0.00,,,-99.99,VWS V12.07,2013-01-19 10:18:00,
2013-01-19 03:24:00,19.7,12.1,30.15,North,7,0.0,0.0,72,0.00,,,-99.99,VWS V12.07,2013-01-19 10:24:00,
2013-01-19 03:30:00,19.7,12.1,30.15,North,7,0.0,0.0,72,0.00,,,-99.99,VWS V12.07,2013-01-19 10:30:00,
2013-01-19 03:36:00,19.9,12.7,30.15,North,7,0.0,0.0,73,0.00,,,-99.99,VWS V12.07,2013-01-19 10:36:00,
2013-01-19 03:42:00,19.9,12.3,30.14,North,7,0.0,0.0,72,0.00,,,-99.99,VWS V12.07,2013-01-19 10:42:00,
2013-01-19 03:48:00,19.9,12.3,30.14,North,7,0.0,0.0,72,0.00,,,-99.99,VWS V12.07,2013-01-19 10:48:00,
2013-01-19 03:54:00,19.9,12.3,30.14,North,7,0.0,0.0,72,0.00,,,-99.99,VWS V12.07,2013-01-19 10:54:00,
2013-01-19 04:00:00,19.7,12.1,30.14,North,7,0.0,0.0,72,0.00,,,-99.99,VWS V12.07,2013-01-19 11:00:00,
2013-01-19 04:06:00,19.4,11.9,30.14,North,7,0.0,0.0,72,0.00,,,-99.99,VWS V12.07,2013-01-19 11:06:00,
2013-01-19 04:12:00,19.1,11.6,30.15,North,7,0.0,0.0,72,0.00,,,-99.99,VWS V12.07,2013-01-19 11:12:00,
2013-01-19 05:48:00,15.9,10.3,30.21,North,7,0.0,0.0,78,0.00,,,-99.99,VWS V12.07,2013-01-19 12:48:00,
2013-01-19 05:50:00,15.9,10.3,30.21,North,7,0.0,0.0,78,0.00,,,-99.99,VWS V12.07,2013-01-19 12:50:00,
2013-01-19 05:52:00,15.9,10.3,30.21,North,7,0.0,0.0,78,0.00,,,-99.99,VWS V12.07,2013-01-19 12:52:00,
2013-01-19 05:58:00,15.9,10.3,30.21,North,7,0.0,0.0,78,0.00,,,-99.99,VWS V12.07,2013-01-19 12:58:00,
2013-01-19 06:00:00,15.9,10.3,30.21,North,7,0.0,0.0,78,0.00,,,-99.99,VWS V12.07,2013-01-19 13:00:00,
2013-01-19 06:06:00,15.9,10.3,30.21,North,7,0.0,0.0,78,0.00,,,-99.99,VWS V12.07,2013-01-19 13:06:00,
2013-01-19 06:12:00,15.7,9.8,30.27,North,7,0.0,0.0,77,0.00,,,-99.99,VWS V12.07,2013-01-19 13:12:00,
2013-01-19 06:18:00,15.6,9.7,30.27,North,7,0.0,0.0,77,0.00,,,-99.99,VWS V12.07,2013-01-19 13:18:00,
2013-01-19 06:24:00,15.2,9.3,30.27,North,7,0.0,0.0,77,0.00,,,-99.99,VWS V12.07,2013-01-19 13:24:00,
2013-01-19 06:30:00,15.2,9.6,30.27,North,7,0.0,0.0,78,0.00,,,-99.99,VWS V12.07,2013-01-19 13:30:00,
2013-01-19 06:36:00,15.1,9.5,30.27,North,7,0.0,0.0,78,0.00,,,-99.99,VWS V12.07,2013-01-19 13:36:00,
2013-01-19 06:42:00,15.1,9.5,30.28,North,7,0.0,0.0,78,0.00,,,-99.99,VWS V12.07,2013-01-19 13:42:00,
2013-01-19 06:48:00,15.1,9.5,30.28,North,7,0.0,0.0,78,0.00,,,-99.99,VWS V12.07,2013-01-19 13:48:00,
2013-01-19 06:54:00,14.9,9.6,30.28,North,7,0.0,0.0,79,0.00,,,-99.99,VWS V12.07,2013-01-19 13:54:00,
2013-01-19 07:00:00,14.9,9.6,30.29,North,7,0.0,0.0,79,0.00,,,-99.99,VWS V12.07,2013-01-19 14:00:00,
2013-01-19 07:06:00,14.8,9.8,30.29,North,7,0.0,0.0,80,0.00,,,-99.99,VWS V12.07,2013-01-19 14:06:00,
2013-01-19 07:12:00,14.9,9.9,30.34,North,7,0.0,0.0,80,0.00,,,-99.99,VWS V12.07,2013-01-19 14:12:00,
2013-01-19 07:18:00,15.1,10.3,30.34,North,7,0.0,0.0,81,0.00,,,-99.99,VWS V12.07,2013-01-19 14:18:00,
2013-01-19 07:24:00,15.1,10.1,30.34,North,7,0.0,0.0,80,0.00,,,-99.99,VWS V12.07,2013-01-19 14:24:00,
2013-01-19 07:30:00,14.9,9.9,30.34,North,7,0.0,0.0,80,0.00,,,-99.99,VWS V12.07,2013-01-19 14:30:00,
2013-01-19 07:36:00,15.1,10.3,30.34,North,7,0.0,0.0,81,0.00,,,-99.99,VWS V12.07,2013-01-19 14:36:00,
2013-01-19 07:42:00,15.1,10.1,30.35,North,7,0.0,0.0,80,0.00,,,-99.99,VWS V12.07,2013-01-19 14:42:00,
2013-01-19 07:48:00,14.9,9.9,30.35,North,7,0.0,0.0,80,0.00,,,-99.99,VWS V12.07,2013-01-19 14:48:00,
2013-01-19 07:54:00,14.9,9.9,30.35,North,7,0.0,0.0,80,0.00,,,-99.99,VWS V12.07,2013-01-19 14:54:00,
2013-01-19 08:00:00,14.9,9.9,30.35,North,7,0.0,0.0,80,0.00,,,-99.99,VWS V12.07,2013-01-19 15:00:00,
2013-01-19 08:06:00,14.9,9.9,30.35,North,7,0.0,0.0,80,0.00,,,-99.99,VWS V12.07,2013-01-19 15:06:00,
2013-01-19 08:12:00,15.1,10.3,30.39,North,7,0.0,0.0,81,0.00,,,-99.99,VWS V12.07,2013-01-19 15:12:00,
2013-01-19 08:18:00,15.2,10.7,30.39,North,7,0.0,0.0,82,0.00,,,-99.99,VWS V12.07,2013-01-19 15:18:00,
2013-01-19 08:24:00,15.7,11.5,30.39,North,7,0.0,0.0,83,0.00,,,-99.99,VWS V12.07,2013-01-19 15:24:00,
2013-01-19 08:30:00,16.2,12.0,30.39,North,7,0.0,0.0,83,0.00,,,-99.99,VWS V12.07,2013-01-19 15:30:00,
2013-01-19 08:36:00,16.7,12.4,30.39,North,7,0.0,0.0,83,0.00,,,-99.99,VWS V12.07,2013-01-19 15:36:00,
2013-01-19 08:42:00,17.7,13.4,30.38,North,7,0.0,0.0,83,0.00,,,-99.99,VWS V12.07,2013-01-19 15:42:00,
2013-01-19 08:48:00,19.1,14.2,30.38,North,7,0.0,0.0,81,0.00,,,-99.99,VWS V12.07,2013-01-19 15:48:00,
2013-01-19 08:54:00,20.8,15.0,30.38,North,7,0.0,0.0,78,0.00,,,-99.99,VWS V12.07,2013-01-19 15:54:00,
2013-01-19 09:00:00,22.9,15.9,30.36,North,1,0.0,2.0,74,0.00,,,-99.99,VWS V12.07,2013-01-19 16:00:00,
2013-01-19 09:06:00,25.4,16.7,30.36,NNE,24,2.0,3.0,69,0.00,,,-99.99,VWS V12.07,2013-01-19 16:06:00,
2013-01-19 09:12:00,27.3,16.8,30.35,NE,35,0.0,3.0,64,0.00,,,-99.99,VWS V12.07,2013-01-19 16:12:00,
2013-01-19 09:18:00,28.8,17.1,30.35,NE,35,0.0,0.0,61,0.00,,,-99.99,VWS V12.07,2013-01-19 16:18:00,
2013-01-19 09:24:00,30.3,17.7,30.35,NE,40,5.0,5.0,59,0.00,,,-99.99,VWS V12.07,2013-01-19 16:24:00,
2013-01-19 09:30:00,31.5,17.2,30.33,NNE,20,1.0,5.0,55,0.00,,,-99.99,VWS V12.07,2013-01-19 16:30:00,
2013-01-19 09:36:00,32.7,17.5,30.33,ENE,58,1.0,2.0,53,0.00,,,-99.99,VWS V12.07,2013-01-19 16:36:00,
2013-01-19 09:42:00,33.8,17.6,30.31,NNE,18,0.0,5.0,51,0.00,,,-99.99,VWS V12.07,2013-01-19 16:42:00,
2013-01-19 09:48:00,34.9,17.2,30.31,NNE,14,0.0,1.0,48,0.00,,,-99.99,VWS V12.07,2013-01-19 16:48:00,
2013-01-19 09:54:00,35.8,17.1,30.31,ENE,71,1.0,3.0,46,0.00,,,-99.99,VWS V12.07,2013-01-19 16:54:00,
2013-01-19 10:00:00,36.9,17.6,30.30,NE,42,0.0,3.0,45,0.00,,,-99.99,VWS V12.07,2013-01-19 17:00:00,
2013-01-19 10:06:00,37.9,18.0,30.30,NNE,28,1.0,5.0,44,0.00,,,-99.99,VWS V12.07,2013-01-19 17:06:00,
2013-01-19 10:13:00,38.8,17.7,30.30,NE,41,0.0,4.0,42,0.00,,,-99.99,VWS V12.07,2013-01-19 17:13:00,
2013-01-19 10:19:00,39.8,17.5,30.30,NNW,342,2.0,3.0,40,0.00,,,-99.99,VWS V12.07,2013-01-19 17:19:00,
2013-01-19 10:24:00,40.6,18.2,30.30,North,0,2.0,2.0,40,0.00,,,-99.99,VWS V12.07,2013-01-19 17:24:00,
2013-01-19 10:30:00,41.5,17.8,30.29,NNE,20,1.0,4.0,38,0.00,,,-99.99,VWS V12.07,2013-01-19 17:30:00,
2013-01-19 10:36:00,41.9,17.5,30.29,East,86,3.0,5.0,37,0.00,,,-99.99,VWS V12.07,2013-01-19 17:36:00,
2013-01-19 10:43:00,42.3,17.9,30.28,NE,51,1.0,6.0,37,0.00,,,-99.99,VWS V12.07,2013-01-19 17:43:00,
2013-01-19 10:48:00,43.1,18.0,30.28,North,349,3.0,5.0,36,0.00,,,-99.99,VWS V12.07,2013-01-19 17:48:00,
2013-01-19 10:54:00,43.5,17.7,30.28,NE,51,3.0,3.0,35,0.00,,,-99.99,VWS V12.07,2013-01-19 17:54:00,
2013-01-19 11:00:00,43.9,18.0,30.26,North,8,2.0,5.0,35,0.00,,,-99.99,VWS V12.07,2013-01-19 18:00:00,
2013-01-19 11:06:00,44.5,17.9,30.26,NNE,18,2.0,7.0,34,0.00,,,-99.99,VWS V12.07,2013-01-19 18:06:00,
2013-01-19 11:12:00,44.8,18.2,30.27,NNE,30,2.0,7.0,34,0.00,,,-99.99,VWS V12.07,2013-01-19 18:12:00,
2013-01-19 11:18:00,45.1,17.7,30.27,NNE,25,2.0,3.0,33,0.00,,,-99.99,VWS V12.07,2013-01-19 18:18:00,
2013-01-19 11:24:00,45.4,18.0,30.27,NNE,17,5.0,5.0,33,0.00,,,-99.99,VWS V12.07,2013-01-19 18:24:00,
2013-01-19 11:30:00,45.8,17.6,30.25,North,0,1.0,5.0,32,0.00,,,-99.99,VWS V12.07,2013-01-19 18:30:00,
2013-01-19 11:36:00,46.5,18.2,30.25,NE,51,1.0,3.0,32,0.00,,,-99.99,VWS V12.07,2013-01-19 18:36:00,
2013-01-19 11:42:00,47.0,17.2,30.25,NNE,20,2.0,6.0,30,0.00,,,-99.99,VWS V12.07,2013-01-19 18:42:00,
2013-01-19 11:50:00,47.7,17.0,30.25,NNE,17,1.0,3.0,29,0.00,,,-99.99,VWS V12.07,2013-01-19 18:50:00,
2013-01-19 11:56:00,48.8,17.2,30.25,North,6,3.0,6.0,28,0.00,,,-99.99,VWS V12.07,2013-01-19 18:56:00,
2013-01-19 12:02:00,49.4,17.7,30.22,NE,35,0.0,3.0,28,0.00,,,-99.99,VWS V12.07,2013-01-19 19:02:00,
2013-01-19 12:09:00,49.9,18.1,30.22,ENE,78,2.0,4.0,28,0.00,,,-99.99,VWS V12.07,2013-01-19 19:09:00,
2013-01-19 12:16:00,50.8,18.0,30.21,NE,37,0.0,5.0,27,0.00,,,-99.99,VWS V12.07,2013-01-19 19:16:00,
2013-01-19 12:22:00,51.6,18.7,30.21,NE,54,0.0,4.0,27,0.00,,,-99.99,VWS V12.07,2013-01-19 19:22:00,
2013-01-19 12:28:00,52.2,17.5,30.19,North,7,2.0,3.0,25,0.00,,,-99.99,VWS V12.07,2013-01-19 19:28:00,
2013-01-19 12:35:00,52.5,17.7,30.19,East,85,1.0,4.0,25,0.00,,,-99.99,VWS V12.07,2013-01-19 19:35:00,
2013-01-19 12:40:00,52.8,18.0,30.19,North,10,2.0,5.0,25,0.00,,,-99.99,VWS V12.07,2013-01-19 19:40:00,
2013-01-19 12:47:00,53.2,17.4,30.17,North,1,2.0,4.0,24,0.00,,,-99.99,VWS V12.07,2013-01-19 19:47:00,
2013-01-19 12:52:00,53.3,17.5,30.17,North,352,2.0,4.0,24,0.00,,,-99.99,VWS V12.07,2013-01-19 19:52:00,
2013-01-19 12:58:00,53.6,17.7,30.16,NNW,339,0.0,2.0,24,0.00,,,-99.99,VWS V12.07,2013-01-19 19:58:00,
2013-01-19 13:04:00,54.5,17.5,30.16,NNE,16,4.0,4.0,23,0.00,,,-99.99,VWS V12.07,2013-01-19 20:04:00,
2013-01-19 13:10:00,55.0,17.9,30.16,NNE,16,3.0,7.0,23,0.00,,,-99.99,VWS V12.07,2013-01-19 20:10:00,
2013-01-19 13:16:00,55.4,17.2,30.14,NNW,332,0.0,5.0,22,0.00,,,-99.99,VWS V12.07,2013-01-19 20:16:00,
2013-01-19 13:22:00,55.9,17.6,30.14,North,0,1.0,6.0,22,0.00,,,-99.99,VWS V12.07,2013-01-19 20:22:00,
2013-01-19 13:28:00,56.3,18.0,30.14,North,3,2.0,3.0,22,0.00,,,-99.99,VWS V12.07,2013-01-19 20:28:00,
2013-01-19 13:38:00,56.9,17.4,30.14,North,357,0.0,0.0,21,0.00,,,-99.99,VWS V12.07,2013-01-19 20:38:00,
2013-01-19 13:44:00,57.0,17.5,30.11,NNE,20,1.0,4.0,21,0.00,,,-99.99,VWS V12.07,2013-01-19 20:44:00,
2013-01-19 13:50:00,57.5,17.9,30.11,NNE,13,2.0,6.0,21,0.00,,,-99.99,VWS V12.07,2013-01-19 20:50:00,
2013-01-19 13:56:00,57.8,18.1,30.11,NE,34,3.0,6.0,21,0.00,,,-99.99,VWS V12.07,2013-01-19 20:56:00,
2013-01-19 14:02:00,58.3,17.4,30.11,NNE,18,0.0,5.0,20,0.00,,,-99.99,VWS V12.07,2013-01-19 21:02:00,
2013-01-19 14:08:00,58.6,17.7,30.11,NNE,23,0.0,2.0,20,0.00,,,-99.99,VWS V12.07,2013-01-19 21:08:00,
2013-01-19 14:14:00,58.9,16.7,30.10,NNW,346,3.0,4.0,19,0.00,,,-99.99,VWS V12.07,2013-01-19 21:14:00,
2013-01-19 14:20:00,58.9,17.9,30.10,North,349,0.0,0.0,20,0.00,,,-99.99,VWS V12.07,2013-01-19 21:20:00,
2013-01-19 14:31:00,59.6,17.3,30.10,NNE,23,5.0,5.0,19,0.00,,,-99.99,VWS V12.07,2013-01-19 21:31:00,
2013-01-19 14:36:00,59.9,16.3,30.10,NNE,18,0.0,4.0,18,0.00,,,-99.99,VWS V12.07,2013-01-19 21:36:00,
2013-01-19 14:44:00,60.1,16.5,30.09,NNE,17,1.0,5.0,18,0.00,,,-99.99,VWS V12.07,2013-01-19 21:44:00,
2013-01-19 14:52:00,60.5,16.8,30.09,NNE,14,0.0,5.0,18,0.00,,,-99.99,VWS V12.07,2013-01-19 21:52:00,
2013-01-19 14:58:00,60.9,17.1,30.08,North,11,1.0,1.0,18,0.00,,,-99.99,VWS V12.07,2013-01-19 21:58:00,
2013-01-19 15:08:00,60.9,17.1,30.08,NNW,346,0.0,0.0,18,0.00,,,-99.99,VWS V12.07,2013-01-19 22:08:00,
2013-01-19 15:16:00,61.0,17.2,30.08,NNW,328,3.0,4.0,18,0.00,,,-99.99,VWS V12.07,2013-01-19 22:16:00,
2013-01-19 15:22:00,61.3,16.1,30.08,North,352,1.0,2.0,17,0.00,,,-99.99,VWS V12.07,2013-01-19 22:22:00,
2013-01-19 15:28:00,61.6,16.4,30.07,North,3,0.0,0.0,17,0.00,,,-99.99,VWS V12.07,2013-01-19 22:28:00,
2013-01-19 15:36:00,61.6,16.4,30.07,North,3,0.0,2.0,17,0.00,,,-99.99,VWS V12.07,2013-01-19 22:36:00,
2013-01-19 15:42:00,61.8,16.5,30.06,North,3,0.0,3.0,17,0.00,,,-99.99,VWS V12.07,2013-01-19 22:42:00,
2013-01-19 15:48:00,61.8,16.5,30.06,North,3,0.0,0.0,17,0.00,,,-99.99,VWS V12.07,2013-01-19 22:48:00,
2013-01-19 15:54:00,61.6,12.0,30.06,NE,42,4.0,4.0,14,0.00,,,-99.99,VWS V12.07,2013-01-19 22:54:00,
2013-01-19 16:02:00,61.8,13.7,30.06,NE,48,0.0,3.0,15,0.00,,,-99.99,VWS V12.07,2013-01-19 23:02:00,
2013-01-19 16:08:00,61.5,10.2,30.06,East,86,1.0,1.0,13,0.00,,,-99.99,VWS V12.07,2013-01-19 23:08:00,
2013-01-19 16:14:00,61.2,10.0,30.08,ESE,103,2.0,4.0,13,0.00,,,-99.99,VWS V12.07,2013-01-19 23:14:00,
2013-01-19 16:20:00,61.0,11.5,30.08,ENE,69,0.0,2.0,14,0.00,,,-99.99,VWS V12.07,2013-01-19 23:20:00,
2013-01-19 16:26:00,60.9,11.4,30.08,East,85,0.0,3.0,14,0.00,,,-99.99,VWS V12.07,2013-01-19 23:26:00,
2013-01-19 16:32:00,60.5,11.1,30.08,ESE,113,1.0,3.0,14,0.00,,,-99.99,VWS V12.07,2013-01-19 23:32:00,
2013-01-19 16:38:00,60.1,10.8,30.08,ESE,113,0.0,1.0,14,0.00,,,-99.99,VWS V12.07,2013-01-19 23:38:00,
2013-01-19 16:44:00,59.9,10.6,30.09,East,93,3.0,3.0,14,0.00,,,-99.99,VWS V12.07,2013-01-19 23:44:00,
2013-01-19 16:50:00,59.6,10.4,30.09,ESE,109,0.0,2.0,14,0.00,,,-99.99,VWS V12.07,2013-01-19 23:50:00,
2013-01-19 16:57:00,59.3,10.1,30.09,ESE,109,0.0,2.0,14,0.00,,,-99.99,VWS V12.07,2013-01-19 23:57:00,
2013-01-19 17:04:00,58.9,11.4,30.09,ESE,107,1.0,2.0,15,0.00,,,-99.99,VWS V12.07,2013-01-20 00:04:00,
2013-01-19 17:10:00,58.9,11.4,30.09,ESE,107,0.0,1.0,15,0.00,,,-99.99,VWS V12.07,2013-01-20 00:10:00,
2013-01-19 17:16:00,58.7,11.2,30.10,ESE,107,0.0,0.0,15,0.00,,,-99.99,VWS V12.07,2013-01-20 00:16:00,
2013-01-19 17:22:00,58.4,10.9,30.10,ESE,107,0.0,0.0,15,0.00,,,-99.99,VWS V12.07,2013-01-20 00:22:00,
2013-01-19 17:28:00,57.8,11.9,30.10,ESE,107,0.0,0.0,16,0.00,,,-99.99,VWS V12.07,2013-01-20 00:28:00,
2013-01-19 17:34:00,57.3,12.9,30.10,ESE,107,0.0,0.0,17,0.00,,,-99.99,VWS V12.07,2013-01-20 00:34:00,
2013-01-19 17:40:00,56.5,13.5,30.10,ESE,107,0.0,0.0,18,0.00,,,-99.99,VWS V12.07,2013-01-20 00:40:00,
2013-01-19 17:46:00,55.4,13.9,30.12,ESE,107,0.0,0.0,19,0.00,,,-99.99,VWS V12.07,2013-01-20 00:46:00,
2013-01-19 17:53:00,54.4,14.2,30.12,ESE,107,0.0,0.0,20,0.00,,,-99.99,VWS V12.07,2013-01-20 00:53:00,
2013-01-19 17:58:00,52.8,12.9,30.14,ESE,107,0.0,0.0,20,0.00,,,-99.99,VWS V12.07,2013-01-20 00:58:00,
2013-01-19 18:07:00,50.4,13.0,30.14,ESE,107,0.0,0.0,22,0.00,,,-99.99,VWS V12.07,2013-01-20 01:07:00,
2013-01-19 18:12:00,48.6,12.5,30.17,ESE,107,0.0,0.0,23,0.00,,,-99.99,VWS V12.07,2013-01-20 01:12:00,
2013-01-19 18:18:00,46.5,11.7,30.17,ESE,107,0.0,0.0,24,0.00,,,-99.99,VWS V12.07,2013-01-20 01:18:00,
2013-01-19 18:24:00,44.9,12.1,30.17,ESE,107,0.0,0.0,26,0.00,,,-99.99,VWS V12.07,2013-01-20 01:24:00,
2013-01-19 18:30:00,43.3,12.4,30.20,ESE,107,0.0,0.0,28,0.00,,,-99.99,VWS V12.07,2013-01-20 01:30:00,
2013-01-19 18:37:00,42.2,12.2,30.20,ESE,107,0.0,0.0,29,0.00,,,-99.99,VWS V12.07,2013-01-20 01:37:00,
2013-01-19 18:42:00,41.2,12.9,30.22,ESE,107,0.0,0.0,31,0.00,,,-99.99,VWS V12.07,2013-01-20 01:42:00,
2013-01-19 18:48:00,39.9,13.1,30.22,ESE,107,0.0,0.0,33,0.00,,,-99.99,VWS V12.07,2013-01-20 01:48:00,
2013-01-19 18:54:00,38.6,12.7,30.22,ESE,107,0.0,0.0,34,0.00,,,-99.99,VWS V12.07,2013-01-20 01:54:00,
2013-01-19 19:02:00,37.3,11.5,30.25,ESE,107,0.0,0.0,34,0.00,,,-99.99,VWS V12.07,2013-01-20 02:02:00,
2013-01-19 19:08:00,36.3,11.9,30.25,ESE,107,0.0,0.0,36,0.00,,,-99.99,VWS V12.07,2013-01-20 02:08:00,
2013-01-19 19:14:00,35.3,12.2,30.26,ESE,107,0.0,0.0,38,0.00,,,-99.99,VWS V12.07,2013-01-20 02:14:00,
2013-01-19 19:20:00,34.3,11.9,30.26,ESE,107,0.0,0.0,39,0.00,,,-99.99,VWS V12.07,2013-01-20 02:20:00,
2013-01-19 19:26:00,33.7,11.4,30.26,ESE,107,0.0,0.0,39,0.00,,,-99.99,VWS V12.07,2013-01-20 02:26:00,
2013-01-19 19:32:00,32.9,11.2,30.27,ESE,107,0.0,0.0,40,0.00,,,-99.99,VWS V12.07,2013-01-20 02:32:00,
2013-01-19 19:40:00,31.9,11.4,30.27,ESE,107,0.0,0.0,42,0.00,,,-99.99,VWS V12.07,2013-01-20 02:40:00,
2013-01-19 19:47:00,31.3,11.9,30.28,ESE,107,0.0,0.0,44,0.00,,,-99.99,VWS V12.07,2013-01-20 02:47:00,
2013-01-19 19:52:00,30.7,12.4,30.28,ESE,107,0.0,0.0,46,0.00,,,-99.99,VWS V12.07,2013-01-20 02:52:00,
2013-01-19 19:58:00,30.1,11.3,30.30,ESE,107,0.0,0.0,45,0.00,,,-99.99,VWS V12.07,2013-01-20 02:58:00,
2013-01-19 20:04:00,29.7,10.5,30.30,ESE,107,0.0,0.0,44,0.00,,,-99.99,VWS V12.07,2013-01-20 03:04:00,
2013-01-19 20:10:00,29.1,10.4,30.30,ESE,107,0.0,0.0,45,0.00,,,-99.99,VWS V12.07,2013-01-20 03:10:00,
2013-01-19 20:16:00,28.7,10.6,30.27,ESE,107,0.0,0.0,46,0.00,,,-99.99,VWS V12.07,2013-01-20 03:16:00,
2013-01-19 20:22:00,28.2,12.0,30.27,ESE,107,0.0,0.0,50,0.00,,,-99.99,VWS V12.07,2013-01-20 03:22:00,
2013-01-19 20:28:00,27.6,13.1,30.28,ESE,107,0.0,0.0,54,0.00,,,-99.99,VWS V12.07,2013-01-20 03:28:00,
2013-01-19 20:34:00,27.2,11.5,30.28,ESE,107,0.0,0.0,51,0.00,,,-99.99,VWS V12.07,2013-01-20 03:34:00,
2013-01-19 20:40:00,26.7,11.4,30.28,ESE,107,0.0,0.0,52,0.00,,,-99.99,VWS V12.07,2013-01-20 03:40:00,
2013-01-19 20:47:00,26.4,10.7,30.29,ESE,107,0.0,0.0,51,0.00,,,-99.99,VWS V12.07,2013-01-20 03:47:00,
2013-01-19 20:52:00,26.1,10.9,30.29,ESE,107,0.0,0.0,52,0.00,,,-99.99,VWS V12.07,2013-01-20 03:52:00,
2013-01-19 20:58:00,25.8,10.2,30.29,ESE,107,0.0,0.0,51,0.00,,,-99.99,VWS V12.07,2013-01-20 03:58:00,
2013-01-19 21:04:00,25.6,10.4,30.29,ESE,107,0.0,0.0,52,0.00,,,-99.99,VWS V12.07,2013-01-20 04:04:00,
2013-01-19 21:10:00,25.3,10.1,30.29,ESE,107,0.0,0.0,52,0.00,,,-99.99,VWS V12.07,2013-01-20 04:10:00,
2013-01-19 21:18:00,25.1,10.8,30.22,ESE,107,0.0,0.0,54,0.00,,,-99.99,VWS V12.07,2013-01-20 04:18:00,
2013-01-19 21:24:00,24.8,10.5,30.22,ESE,107,0.0,0.0,54,0.00,,,-99.99,VWS V12.07,2013-01-20 04:24:00,
2013-01-19 21:30:00,24.4,11.8,30.22,ESE,107,0.0,0.0,58,0.00,,,-99.99,VWS V12.07,2013-01-20 04:30:00,
2013-01-19 21:36:00,24.1,11.5,30.22,ESE,107,0.0,0.0,58,0.00,,,-99.99,VWS V12.07,2013-01-20 04:36:00,
2013-01-19 21:42:00,23.8,10.0,30.23,ESE,107,0.0,0.0,55,0.00,,,-99.99,VWS V12.07,2013-01-20 04:42:00,
2013-01-19 21:48:00,23.5,9.3,30.23,ESE,107,0.0,0.0,54,0.00,,,-99.99,VWS V12.07,2013-01-20 04:48:00,
2013-01-19 21:54:00,23.2,9.4,30.23,ESE,107,0.0,0.0,55,0.00,,,-99.99,VWS V12.07,2013-01-20 04:54:00,
2013-01-19 22:03:00,22.9,9.2,30.24,ESE,107,0.0,0.0,55,0.00,,,-99.99,VWS V12.07,2013-01-20 05:03:00,
2013-01-19 22:04:00,22.9,9.6,30.24,ESE,107,0.0,0.0,56,0.00,,,-99.99,VWS V12.07,2013-01-20 05:04:00,
2013-01-19 22:06:00,22.7,9.8,30.24,ESE,107,0.0,0.0,57,0.00,,,-99.99,VWS V12.07,2013-01-20 05:06:00,
2013-01-19 22:12:00,22.5,9.2,30.21,ESE,107,0.0,0.0,56,0.00,,,-99.99,VWS V12.07,2013-01-20 05:12:00,
2013-01-19 22:18:00,22.4,9.5,30.21,ESE,107,0.0,0.0,57,0.00,,,-99.99,VWS V12.07,2013-01-20 05:18:00,
2013-01-19 22:24:00,22.1,11.1,30.21,ESE,107,0.0,0.0,62,0.00,,,-99.99,VWS V12.07,2013-01-20 05:24:00,
2013-01-19 22:30:00,21.8,10.8,30.21,ESE,107,0.0,0.0,62,0.00,,,-99.99,VWS V12.07,2013-01-20 05:30:00,
2013-01-19 22:36:00,21.6,10.2,30.21,ESE,107,0.0,0.0,61,0.00,,,-99.99,VWS V12.07,2013-01-20 05:36:00,
2013-01-19 22:42:00,21.3,10.0,30.22,ESE,107,0.0,0.0,61,0.00,,,-99.99,VWS V12.07,2013-01-20 05:42:00,
2013-01-19 22:48:00,21.1,9.8,30.22,ESE,107,0.0,0.0,61,0.00,,,-99.99,VWS V12.07,2013-01-20 05:48:00,
2013-01-19 22:54:00,21.0,10.0,30.22,ESE,107,0.0,0.0,62,0.00,,,-99.99,VWS V12.07,2013-01-20 05:54:00,
2013-01-19 23:00:00,20.6,9.7,30.23,ESE,107,0.0,0.0,62,0.00,,,-99.99,VWS V12.07,2013-01-20 06:00:00,
2013-01-19 23:06:00,20.5,9.6,30.23,ESE,107,0.0,0.0,62,0.00,,,-99.99,VWS V12.07,2013-01-20 06:06:00,
2013-01-19 23:12:00,20.3,9.4,30.20,ESE,107,0.0,0.0,62,0.00,,,-99.99,VWS V12.07,2013-01-20 06:12:00,
2013-01-19 23:18:00,20.0,9.1,30.20,ESE,107,0.0,0.0,62,0.00,,,-99.99,VWS V12.07,2013-01-20 06:18:00,
2013-01-19 23:24:00,19.9,8.6,30.20,ESE,107,0.0,0.0,61,0.00,,,-99.99,VWS V12.07,2013-01-20 06:24:00,
2013-01-19 23:30:00,19.7,8.4,30.21,ESE,107,0.0,0.0,61,0.00,,,-99.99,VWS V12.07,2013-01-20 06:30:00,
2013-01-19 23:36:00,19.4,9.9,30.21,ESE,107,0.0,0.0,66,0.00,,,-99.99,VWS V12.07,2013-01-20 06:36:00,
2013-01-19 23:42:00,19.2,9.4,30.21,ESE,107,0.0,0.0,65,0.00,,,-99.99,VWS V12.07,2013-01-20 06:42:00,
2013-01-19 23:48:00,19.2,9.0,30.21,ESE,107,0.0,0.0,64,0.00,,,-99.99,VWS V12.07,2013-01-20 06:48:00,
2013-01-19 23:54:00,18.9,8.8,30.21,ESE,107,0.0,0.0,64,0.00,,,-99.99,VWS V12.07,2013-01-20 06:54:00,